Portada
METAR-TAF:

METAR-TAF

Aeroports :

Mwanza, Tanzània

latitud: 02-28S, longitud: 032-55E, altitud: 1139 m

Observació

L'informe es va fer fa 45 minuts, a les 07:00 UTC
Vent 15 kt del Est/Sud-Est
Temperatura 27°C
Humitat 45%
Pressió 1018 hPa
Visibilitat 10 km o més
Escasses núvols a una alçada de 2500 ft

METAR: HTMW 240700Z 12015KT 9999 FEW025 27/14 Q1018 NOSIG

Hora: 10:45 (07:45 UTC)

Pronòstic

L'informe es va fer fa 2 hores i 45 minuts, a les 05:00 UTC
Pronòstic vàlid del 24 a les 06 UTC al 25 a les 06 UTC
Vent 5 kt del Est/Sud-Est
Visibilitat 10 km o més
Escasses núvols a una alçada de 2100 ft
Escasses núvols a una alçada de 2200 ft, Cumulonimbus.
Temporalment
l' 24 a les 20 UTC al 24 a les 24 UTC

TAF: HTMW 240500Z 2406/2506 12005KT 9999 FEW021 FEW022CB TEMPO 2420/2424 TS/TSRA

Observacions i pronòstics meteorològics de més de 4000 aeroports (METAR i TAF).

Les estacions disponibles són els punts grocs i vermells al mapa.

Posi el ratolí al punt desitjat per veure el nom de l'estació.

Feu clic per veure les observacions i els pronòstics meteorològics.

Per canviar el mapa: feu clic els botons verds amb una creu de color negre per apropar; al botó verd amb un guió per allunyar la imatge; o en les fletxes verdes per a mapes adjacents.


METAR-TAF: